Time;durP1;ratioP1;P1;durP2;ratioP2;P2;SDS_P1;SDS_P2;PMS_P1;PMS_P2;Temp;Humidity;BMP_temperature;BMP_pressure;BME280_temperature;BME280_humidity;BME280_pressure;Samples;Min_cycle;Max_cycle;Signal;HPM_P1;HPM_P2
2022/12/05 06:00:40;;;;;;;15.53;12.53;;;5.80;97.20;;;;;;1726984;28;20211;-70
2022/12/05 06:01:30;;;;;;;13.82;11.35;;;5.80;97.20;;;;;;1726406;28;20208;-70
2022/12/05 06:02:22;;;;;;;17.23;12.67;;;5.80;97.20;;;;;;1726724;28;20280;-70
2022/12/05 06:03:13;;;;;;;21.05;13.10;;;5.80;97.20;;;;;;1724211;28;20213;-70
2022/12/05 06:04:06;;;;;;;16.20;12.53;;;5.80;97.20;;;;;;1725804;28;20199;-70
2022/12/05 06:04:57;;;;;;;16.15;12.85;;;5.90;97.20;;;;;;1726810;28;20204;-70
2022/12/05 06:05:57;;;;;;;15.20;12.00;;;5.90;97.20;;;;;;1723104;28;20193;-70
2022/12/05 06:06:47;;;;;;;15.00;12.32;;;5.90;97.20;;;;;;1726658;28;20204;-70
2022/12/05 06:07:39;;;;;;;16.53;12.83;;;5.90;97.20;;;;;;1726646;28;20200;-70
2022/12/05 06:08:31;;;;;;;15.90;12.50;;;5.90;97.20;;;;;;1726848;28;20602;-70
2022/12/05 06:09:22;;;;;;;15.05;11.60;;;5.90;97.20;;;;;;1726888;28;20204;-70
2022/12/05 06:10:13;;;;;;;17.17;13.38;;;5.90;97.20;;;;;;1726762;28;20204;-70
2022/12/05 06:11:06;;;;;;;15.90;12.43;;;5.90;97.20;;;;;;1726900;28;20287;-70
2022/12/05 06:11:56;;;;;;;20.08;15.20;;;5.90;97.20;;;;;;1726318;28;20464;-70
2022/12/05 06:12:48;;;;;;;17.30;13.87;;;5.80;97.20;;;;;;1726972;28;20211;-70
2022/12/05 06:13:39;;;;;;;18.55;13.98;;;5.90;97.20;;;;;;1723006;28;20227;-70
2022/12/05 06:14:31;;;;;;;18.63;14.00;;;5.80;97.20;;;;;;1726900;28;20218;-70
2022/12/05 06:15:21;;;;;;;16.85;12.52;;;5.80;97.20;;;;;;1721664;28;20490;-70
2022/12/05 06:16:16;;;;;;;19.20;13.30;;;5.80;97.20;;;;;;1720257;28;20205;-70
2022/12/05 06:17:07;;;;;;;16.90;13.32;;;5.80;97.20;;;;;;1719988;28;20455;-70
2022/12/05 06:17:59;;;;;;;17.03;13.60;;;5.80;97.20;;;;;;1720001;28;20476;-70
2022/12/05 06:18:51;;;;;;;17.85;13.80;;;5.80;97.20;;;;;;1720087;28;20401;-70
2022/12/05 06:19:43;;;;;;;18.92;14.27;;;5.80;97.20;;;;;;1719992;28;20204;-70
2022/12/05 06:20:33;;;;;;;18.48;12.15;;;5.80;97.20;;;;;;1719845;28;20240;-70
2022/12/05 06:21:25;;;;;;;13.87;11.93;;;5.70;97.20;;;;;;1719685;28;20207;-70
2022/12/05 06:22:16;;;;;;;17.88;13.27;;;5.70;97.20;;;;;;1720068;28;20240;-70
2022/12/05 06:23:08;;;;;;;17.97;13.60;;;5.70;97.20;;;;;;1724502;28;20242;-70
2022/12/05 06:23:58;;;;;;;18.10;13.88;;;5.60;97.20;;;;;;1723712;28;20204;-70
2022/12/05 06:24:50;;;;;;;17.27;14.43;;;5.60;97.20;;;;;;1726241;28;20201;-70
2022/12/05 06:25:46;;;;;;;17.98;13.90;;;5.60;97.20;;;;;;1726298;28;20200;-70
2022/12/05 06:26:38;;;;;;;19.92;15.32;;;5.60;97.20;;;;;;1726514;28;20243;-70
2022/12/05 06:27:29;;;;;;;17.40;13.10;;;5.60;97.20;;;;;;1726918;28;20204;-70
2022/12/05 06:28:24;;;;;;;16.48;12.68;;;5.70;97.20;;;;;;1726729;28;20232;-70
2022/12/05 06:29:15;;;;;;;18.50;13.77;;;5.60;97.20;;;;;;1726941;28;20204;-70
2022/12/05 06:30:08;;;;;;;19.10;14.60;;;5.70;97.20;;;;;;1726805;28;20669;-70
2022/12/05 06:30:58;;;;;;;17.83;13.15;;;5.70;97.20;;;;;;1726574;28;20615;-70
2022/12/05 06:31:51;;;;;;;17.03;13.23;;;5.70;97.20;;;;;;1726315;28;20706;-70
2022/12/05 06:32:42;;;;;;;15.25;12.00;;;5.70;97.20;;;;;;1726304;28;20573;-70
2022/12/05 06:33:34;;;;;;;16.60;13.00;;;5.70;97.20;;;;;;1724745;28;20220;-70
2022/12/05 06:34:24;;;;;;;15.90;12.48;;;5.70;97.20;;;;;;1720095;28;20243;-70
2022/12/05 06:35:16;;;;;;;14.73;11.40;;;5.70;97.20;;;;;;1724433;28;20196;-70
2022/12/05 06:36:09;;;;;;;14.70;11.30;;;5.70;97.20;;;;;;1726944;28;20208;-71
2022/12/05 06:37:01;;;;;;;15.57;11.73;;;5.70;97.20;;;;;;1726413;28;20722;-71
2022/12/05 06:37:52;;;;;;;13.23;10.45;;;5.80;97.20;;;;;;1725550;28;20196;-71
2022/12/05 06:38:43;;;;;;;13.30;10.30;;;5.80;97.20;;;;;;1727024;28;20208;-71
2022/12/05 06:39:34;;;;;;;13.18;10.93;;;5.80;97.20;;;;;;1726903;28;20447;-71
2022/12/05 06:40:26;;;;;;;12.33;10.30;;;5.80;97.20;;;;;;1726853;28;20210;-71
2022/12/05 06:41:19;;;;;;;12.80;10.23;;;5.80;97.20;;;;;;1726540;28;20343;-71
2022/12/05 06:42:10;;;;;;;12.13;10.80;;;5.80;97.20;;;;;;1726855;28;20211;-71
2022/12/05 06:43:01;;;;;;;15.88;12.10;;;5.80;97.20;;;;;;1726390;28;20204;-71
2022/12/05 06:43:53;;;;;;;12.83;10.80;;;5.80;97.20;;;;;;1726605;28;20196;-71
2022/12/05 06:44:44;;;;;;;13.70;10.40;;;5.90;97.20;;;;;;1726846;28;20196;-71
2022/12/05 06:45:37;;;;;;;11.60;10.40;;;5.90;97.20;;;;;;1726613;28;20204;-71
2022/12/05 06:46:29;;;;;;;11.90;10.45;;;5.90;97.20;;;;;;1726449;28;20200;-72
2022/12/05 06:47:22;;;;;;;12.85;10.23;;;5.90;97.20;;;;;;1726713;28;20557;-72
2022/12/05 06:48:13;;;;;;;11.90;10.70;;;5.90;97.20;;;;;;1726173;28;20220;-70
2022/12/05 06:49:05;;;;;;;11.83;10.03;;;5.90;97.20;;;;;;1720851;28;20212;-71
2022/12/05 06:49:56;;;;;;;13.13;10.98;;;5.90;97.20;;;;;;1723596;28;20204;-71
2022/12/05 06:50:49;;;;;;;11.10;9.95;;;6.00;97.20;;;;;;1721316;28;20245;-72
2022/12/05 06:51:40;;;;;;;12.85;11.50;;;6.00;97.20;;;;;;1720631;28;20205;-71
2022/12/05 06:52:32;;;;;;;12.83;10.13;;;6.00;97.20;;;;;;1720042;28;20288;-71
2022/12/05 06:53:24;;;;;;;11.98;10.70;;;6.00;97.20;;;;;;1720849;28;20440;-72
2022/12/05 06:54:16;;;;;;;12.13;9.88;;;6.00;97.20;;;;;;1720530;28;20193;-72
2022/12/05 06:55:07;;;;;;;12.45;11.20;;;6.00;97.20;;;;;;1722135;28;20205;-72
2022/12/05 06:56:01;;;;;;;12.32;10.88;;;6.00;97.20;;;;;;1727109;28;20231;-72
2022/12/05 06:56:51;;;;;;;12.07;10.02;;;6.00;97.20;;;;;;1726927;28;20239;-72
2022/12/05 06:57:43;;;;;;;13.03;10.30;;;6.00;97.20;;;;;;1727062;28;20287;-72
2022/12/05 06:58:34;;;;;;;11.27;10.10;;;6.00;97.20;;;;;;1726986;28;20208;-72
2022/12/05 06:59:25;;;;;;;13.67;11.20;;;6.00;97.20;;;;;;1722748;28;20209;-72
2022/12/05 07:01:39;;;;;;;12.00;10.73;;;6.00;97.20;;;;;;1719713;28;20884;-72
2022/12/05 07:02:32;;;;;;;13.20;10.60;;;6.00;97.20;;;;;;1720243;28;20344;-72
2022/12/05 07:03:23;;;;;;;13.75;10.70;;;6.00;97.20;;;;;;1720454;28;20293;-72
2022/12/05 07:04:19;;;;;;;12.53;11.17;;;6.00;97.20;;;;;;1720354;28;20300;-72
2022/12/05 07:05:10;;;;;;;11.63;10.43;;;6.00;97.20;;;;;;1720320;28;20205;-72
2022/12/05 07:06:03;;;;;;;12.15;9.95;;;6.00;97.20;;;;;;1722418;28;20209;-73
2022/12/05 07:06:54;;;;;;;11.80;10.60;;;6.00;97.20;;;;;;1726763;28;20204;-72
2022/12/05 07:07:46;;;;;;;12.55;10.88;;;6.00;97.20;;;;;;1725964;28;20201;-72
2022/12/05 07:08:37;;;;;;;12.88;10.77;;;6.00;97.20;;;;;;1726836;28;20715;-73
2022/12/05 07:10:34;;;;;;;12.95;11.15;;;6.00;97.20;;;;;;1727436;28;20458;-71
2022/12/05 07:11:25;;;;;;;12.57;10.93;;;6.00;97.20;;;;;;1727434;28;20197;-72
2022/12/05 07:12:19;;;;;;;11.37;10.23;;;6.00;97.20;;;;;;1728185;28;20214;-71
2022/12/05 07:13:09;;;;;;;11.95;10.68;;;6.00;97.20;;;;;;1727821;28;20443;-71
2022/12/05 07:16:16;;;;;;;12.18;10.25;;;5.90;97.20;;;;;;1727511;28;20616;-72
2022/12/05 07:17:06;;;;;;;14.77;11.15;;;5.90;97.20;;;;;;1728093;28;20193;-72
2022/12/05 07:17:59;;;;;;;13.20;11.10;;;5.90;97.20;;;;;;1728233;28;20712;-72
2022/12/05 07:18:50;;;;;;;14.35;11.55;;;5.90;97.20;;;;;;1728185;28;20571;-71
2022/12/05 07:19:42;;;;;;;12.60;11.27;;;5.90;97.20;;;;;;1728295;28;20310;-71
2022/12/05 07:20:33;;;;;;;12.43;10.00;;;5.90;97.20;;;;;;1728063;28;20595;-72
2022/12/05 07:21:24;;;;;;;12.53;11.10;;;5.90;97.20;;;;;;1728246;28;20200;-72
2022/12/05 07:22:15;;;;;;;12.43;10.90;;;5.90;97.20;;;;;;1728264;28;20201;-72
2022/12/05 07:23:07;;;;;;;14.38;11.00;;;5.90;97.20;;;;;;1728303;28;20665;-72
2022/12/05 07:23:58;;;;;;;11.82;9.68;;;5.90;97.20;;;;;;1727978;28;20231;-72
2022/12/05 07:24:52;;;;;;;13.10;10.93;;;5.90;97.20;;;;;;1727448;28;20204;-72
2022/12/05 07:25:42;;;;;;;13.40;11.40;;;5.90;97.20;;;;;;1728348;28;20200;-72
2022/12/05 07:26:34;;;;;;;11.73;10.00;;;5.90;97.20;;;;;;1727955;28;20200;-72
2022/12/05 07:27:25;;;;;;;14.50;11.73;;;5.90;97.20;;;;;;1728117;28;20216;-72
2022/12/05 07:28:17;;;;;;;11.60;10.40;;;6.00;97.20;;;;;;1728088;28;20208;-72
2022/12/05 07:29:08;;;;;;;11.35;10.07;;;6.00;97.20;;;;;;1728087;28;20220;-72
2022/12/05 07:30:00;;;;;;;12.43;10.90;;;6.00;97.20;;;;;;1728276;28;20231;-71
2022/12/05 07:30:59;;;;;;;13.95;11.15;;;6.00;97.20;;;;;;1727899;28;20228;-72
2022/12/05 07:31:53;;;;;;;10.93;9.82;;;6.00;97.20;;;;;;1728163;28;20729;-72
2022/12/05 07:32:44;;;;;;;11.52;10.13;;;6.00;97.20;;;;;;1728279;28;20212;-72
2022/12/05 07:33:37;;;;;;;12.27;10.30;;;6.00;97.20;;;;;;1728238;28;20611;-72
2022/12/05 07:34:29;;;;;;;12.25;10.23;;;6.10;97.20;;;;;;1727327;28;20205;-72
2022/12/05 07:35:20;;;;;;;13.73;10.10;;;6.10;97.20;;;;;;1728196;28;20204;-72
2022/12/05 07:36:13;;;;;;;12.80;10.30;;;6.10;97.20;;;;;;1728010;28;20704;-72
2022/12/05 07:37:04;;;;;;;14.13;10.98;;;6.10;97.20;;;;;;1727845;28;20205;-72
2022/12/05 07:37:55;;;;;;;13.07;10.77;;;6.10;97.20;;;;;;1728000;28;20207;-72
2022/12/05 07:38:46;;;;;;;12.23;9.98;;;6.10;97.20;;;;;;1727880;28;20204;-72
2022/12/05 07:39:38;;;;;;;13.95;10.10;;;6.20;97.20;;;;;;1728198;28;20201;-72
2022/12/05 07:40:29;;;;;;;13.90;10.77;;;6.20;97.20;;;;;;1727939;28;20213;-71
2022/12/05 07:41:23;;;;;;;13.27;9.87;;;6.20;97.20;;;;;;1728209;28;20206;-72
2022/12/05 07:42:13;;;;;;;10.88;9.38;;;6.20;97.20;;;;;;1728185;28;20208;-72
2022/12/05 07:43:05;;;;;;;10.83;9.60;;;6.30;97.20;;;;;;1728221;28;20208;-72
2022/12/05 07:43:57;;;;;;;11.55;9.60;;;6.30;97.20;;;;;;1727812;28;20200;-72
2022/12/05 07:44:49;;;;;;;12.43;10.98;;;6.30;97.20;;;;;;1727532;28;20291;-72
2022/12/05 07:45:40;;;;;;;12.80;9.93;;;6.30;97.20;;;;;;1728132;28;20212;-72
2022/12/05 07:46:31;;;;;;;12.47;10.37;;;6.30;97.20;;;;;;1727748;28;20683;-72
2022/12/05 07:47:22;;;;;;;11.40;10.20;;;6.30;97.20;;;;;;1727952;28;20674;-72
2022/12/05 07:48:14;;;;;;;12.10;9.83;;;6.40;97.20;;;;;;1728071;28;20654;-72
2022/12/05 07:49:07;;;;;;;10.95;9.57;;;6.30;97.20;;;;;;1728159;28;20204;-72
2022/12/05 07:49:58;;;;;;;10.85;9.73;;;6.40;97.20;;;;;;1728035;28;20204;-72
2022/12/05 07:50:50;;;;;;;10.10;9.00;;;6.40;97.20;;;;;;1727942;28;20224;-72
2022/12/05 07:51:41;;;;;;;9.32;8.30;;;6.40;97.20;;;;;;1728036;28;20224;-71
2022/12/05 07:52:32;;;;;;;13.13;9.67;;;6.40;97.20;;;;;;1728137;28;20200;-72
2022/12/05 07:53:23;;;;;;;10.63;9.35;;;6.40;97.20;;;;;;1728123;28;20455;-72
2022/12/05 07:54:15;;;;;;;12.37;10.57;;;6.40;97.20;;;;;;1727697;28;20196;-72
2022/12/05 07:55:07;;;;;;;11.13;9.82;;;6.40;97.20;;;;;;1727659;28;20814;-72
2022/12/05 07:56:00;;;;;;;11.88;10.18;;;6.40;97.20;;;;;;1728089;28;20254;-71
2022/12/05 07:56:50;;;;;;;11.88;10.57;;;6.40;97.20;;;;;;1727603;28;20269;-72
2022/12/05 07:57:42;;;;;;;12.63;9.87;;;6.40;97.20;;;;;;1728198;28;20251;-71
2022/12/05 07:58:34;;;;;;;11.88;10.10;;;6.40;97.20;;;;;;1728008;28;20212;-71
2022/12/05 07:59:26;;;;;;;11.02;9.88;;;6.50;97.20;;;;;;1728118;28;20263;-72
2022/12/05 08:00:18;;;;;;;10.43;9.25;;;6.50;97.20;;;;;;1727825;28;20213;-72
2022/12/05 08:01:12;;;;;;;11.32;9.63;;;6.50;97.20;;;;;;1728103;28;20201;-71
2022/12/05 08:02:03;;;;;;;11.18;9.48;;;6.50;97.20;;;;;;1728114;28;20204;-72
2022/12/05 08:02:54;;;;;;;10.47;9.37;;;6.50;97.20;;;;;;1727953;28;20666;-71
2022/12/05 08:03:46;;;;;;;11.60;10.40;;;6.50;97.20;;;;;;1728029;28;20693;-72
2022/12/05 08:04:39;;;;;;;10.23;9.13;;;6.50;97.20;;;;;;1727169;28;20292;-72
2022/12/05 08:05:29;;;;;;;10.38;9.20;;;6.50;97.20;;;;;;1727910;28;20225;-72
2022/12/05 08:06:23;;;;;;;10.23;9.13;;;6.50;97.20;;;;;;1727921;28;20201;-72
2022/12/05 08:07:14;;;;;;;11.88;10.48;;;6.50;97.20;;;;;;1727714;28;20208;-72
2022/12/05 08:08:06;;;;;;;11.73;10.03;;;6.50;97.20;;;;;;1728055;28;20205;-72
2022/12/05 08:08:57;;;;;;;12.25;10.68;;;6.50;97.20;;;;;;1728000;28;20224;-71
2022/12/05 08:09:48;;;;;;;12.30;10.13;;;6.50;97.20;;;;;;1727927;28;20205;-72
2022/12/05 08:10:39;;;;;;;11.73;10.25;;;6.50;97.20;;;;;;1727880;28;20224;-71
2022/12/05 08:11:34;;;;;;;11.17;10.00;;;6.50;97.20;;;;;;1727921;28;20197;-72
2022/12/05 08:12:25;;;;;;;13.18;10.43;;;6.50;97.20;;;;;;1728062;28;20588;-72
2022/12/05 08:13:17;;;;;;;12.07;10.10;;;6.50;97.20;;;;;;1727960;28;20200;-72
2022/12/05 08:14:08;;;;;;;11.32;10.13;;;6.50;97.20;;;;;;1727574;28;20200;-72
2022/12/05 08:15:00;;;;;;;11.68;10.45;;;6.50;97.20;;;;;;1727492;28;20204;-72
2022/12/05 08:15:51;;;;;;;12.02;9.90;;;6.50;97.20;;;;;;1727938;28;20205;-72
2022/12/05 08:16:42;;;;;;;14.33;11.83;;;6.50;97.20;;;;;;1727509;28;20200;-72
2022/12/05 08:17:33;;;;;;;12.13;10.70;;;6.50;97.20;;;;;;1727832;28;20205;-72
2022/12/05 08:18:25;;;;;;;11.63;10.43;;;6.50;97.20;;;;;;1727957;28;20650;-72
2022/12/05 08:19:16;;;;;;;12.75;10.82;;;6.40;97.20;;;;;;1727886;28;20196;-72
2022/12/05 08:20:10;;;;;;;13.63;10.07;;;6.40;97.20;;;;;;1728051;28;20205;-72
2022/12/05 08:21:02;;;;;;;12.93;10.32;;;6.40;97.20;;;;;;1727254;28;20450;-72
2022/12/05 08:21:54;;;;;;;11.95;10.25;;;6.40;97.20;;;;;;1727755;28;20235;-72
2022/12/05 08:22:45;;;;;;;11.88;9.27;;;6.40;97.20;;;;;;1728046;28;20204;-72
2022/12/05 08:23:37;;;;;;;12.27;10.27;;;6.50;97.20;;;;;;1727838;28;20200;-72
2022/12/05 08:24:28;;;;;;;12.00;9.52;;;6.40;97.20;;;;;;1727091;28;20671;-72
2022/12/05 08:25:20;;;;;;;12.50;10.50;;;6.50;97.20;;;;;;1727845;28;20222;-72
2022/12/05 08:26:14;;;;;;;11.40;9.85;;;6.40;97.20;;;;;;1727773;28;20209;-72
2022/12/05 08:27:06;;;;;;;11.23;9.38;;;6.40;97.20;;;;;;1727679;28;20208;-72
2022/12/05 08:27:56;;;;;;;11.18;9.15;;;6.50;97.20;;;;;;1727778;28;20681;-72
2022/12/05 08:28:51;;;;;;;9.67;8.67;;;6.40;97.20;;;;;;1727728;28;20607;-72
2022/12/05 08:29:43;;;;;;;9.70;8.70;;;6.40;97.20;;;;;;1727896;28;20193;-72
2022/12/05 08:30:35;;;;;;;9.30;8.40;;;6.40;97.20;;;;;;1727565;28;20733;-72
2022/12/05 08:31:27;;;;;;;9.30;8.40;;;6.40;97.20;;;;;;1727903;28;20211;-72
2022/12/05 08:32:19;;;;;;;11.70;9.00;;;6.40;97.20;;;;;;1727716;28;20713;-71
2022/12/05 08:33:10;;;;;;;9.70;8.13;;;6.40;97.20;;;;;;1727741;28;20200;-71
2022/12/05 08:34:02;;;;;;;9.40;8.50;;;6.40;97.20;;;;;;1727653;28;20204;-72
2022/12/05 08:34:54;;;;;;;9.93;8.85;;;6.40;97.20;;;;;;1720408;28;20205;-71
2022/12/05 08:35:46;;;;;;;9.80;8.80;;;6.40;97.20;;;;;;1721034;28;20205;-72
2022/12/05 08:36:37;;;;;;;11.10;9.05;;;6.40;97.20;;;;;;1720756;28;20259;-72
2022/12/05 08:37:28;;;;;;;10.50;9.15;;;6.40;97.20;;;;;;1721002;28;20212;-72
2022/12/05 08:38:20;;;;;;;10.20;8.30;;;6.40;97.20;;;;;;1721171;28;20227;-72
2022/12/05 08:39:14;;;;;;;10.40;9.05;;;6.40;97.20;;;;;;1721022;28;20669;-72
2022/12/05 08:40:07;;;;;;;8.48;7.57;;;6.40;97.20;;;;;;1721098;28;20655;-71
2022/12/05 08:41:00;;;;;;;9.65;8.65;;;6.40;97.20;;;;;;1720928;28;20236;-72
2022/12/05 08:41:52;;;;;;;8.07;7.18;;;6.30;97.20;;;;;;1720906;28;20201;-72
2022/12/05 08:42:43;;;;;;;9.30;7.68;;;6.30;97.20;;;;;;1721034;28;20675;-72
2022/12/05 08:43:35;;;;;;;10.07;9.00;;;6.30;97.20;;;;;;1721053;28;20541;-72
2022/12/05 08:44:25;;;;;;;9.02;8.13;;;6.30;97.20;;;;;;1723856;28;20669;-72
2022/12/05 08:45:17;;;;;;;9.20;8.13;;;6.30;97.20;;;;;;1727707;28;20708;-71
2022/12/05 08:46:10;;;;;;;9.10;8.18;;;6.30;97.20;;;;;;1727614;28;20678;-71
2022/12/05 08:47:02;;;;;;;10.95;8.40;;;6.30;97.20;;;;;;1727371;28;20200;-72
2022/12/05 08:47:52;;;;;;;10.02;8.80;;;6.30;97.20;;;;;;1727555;28;20204;-71
2022/12/05 08:48:44;;;;;;;9.30;8.17;;;6.30;97.20;;;;;;1727684;28;20203;-72
2022/12/05 08:49:35;;;;;;;9.27;7.78;;;6.30;97.20;;;;;;1727689;28;20220;-72
2022/12/05 08:50:26;;;;;;;9.50;8.57;;;6.30;97.20;;;;;;1727618;28;20224;-72
2022/12/05 08:51:19;;;;;;;9.60;8.25;;;6.30;97.20;;;;;;1727691;28;20205;-72
2022/12/05 08:52:10;;;;;;;9.73;8.40;;;6.30;97.20;;;;;;1727691;28;20592;-71
2022/12/05 08:53:01;;;;;;;9.43;8.38;;;6.30;97.20;;;;;;1727630;28;20211;-72
2022/12/05 08:53:55;;;;;;;9.33;8.33;;;6.30;97.20;;;;;;1727640;28;20202;-71
2022/12/05 08:54:45;;;;;;;10.13;9.05;;;6.30;97.20;;;;;;1726846;28;20271;-72
2022/12/05 08:55:38;;;;;;;9.70;8.70;;;6.30;97.20;;;;;;1727634;28;20205;-72
2022/12/05 08:56:29;;;;;;;12.13;8.60;;;6.30;97.20;;;;;;1727474;28;20205;-72
2022/12/05 08:57:21;;;;;;;9.35;8.40;;;6.30;97.20;;;;;;1727322;28;20204;-72
2022/12/05 08:58:12;;;;;;;9.00;8.10;;;6.30;97.20;;;;;;1727527;28;20575;-72
2022/12/05 08:59:04;;;;;;;11.80;8.80;;;6.30;97.20;;;;;;1727659;28;20198;-71
2022/12/05 08:59:55;;;;;;;8.57;7.70;;;6.30;97.20;;;;;;1727542;28;20226;-72
2022/12/05 09:00:47;;;;;;;8.93;7.87;;;6.30;97.20;;;;;;1727589;28;20217;-71
2022/12/05 09:01:37;;;;;;;10.43;8.23;;;6.40;97.20;;;;;;1727595;28;20204;-71
2022/12/05 09:02:29;;;;;;;9.50;8.23;;;6.30;97.20;;;;;;1727529;28;20219;-71
2022/12/05 09:03:20;;;;;;;11.90;8.82;;;6.40;97.20;;;;;;1727615;28;20200;-72
2022/12/05 09:04:12;;;;;;;9.00;7.90;;;6.40;97.20;;;;;;1727224;28;20200;-71
2022/12/05 09:05:03;;;;;;;8.68;7.85;;;6.40;97.20;;;;;;1727054;28;20204;-71
2022/12/05 09:05:55;;;;;;;10.40;8.57;;;6.40;97.20;;;;;;1727493;28;20569;-72
2022/12/05 09:06:48;;;;;;;10.05;8.05;;;6.40;97.20;;;;;;1727320;28;20217;-72
2022/12/05 09:07:38;;;;;;;9.40;8.50;;;6.40;97.20;;;;;;1727593;28;20204;-71
2022/12/05 09:08:30;;;;;;;10.67;8.97;;;6.30;97.20;;;;;;1727571;28;20205;-71
2022/12/05 09:09:21;;;;;;;9.15;7.88;;;6.30;97.20;;;;;;1727493;28;20306;-72
2022/12/05 09:10:12;;;;;;;9.40;8.23;;;6.30;97.20;;;;;;1727325;28;20223;-72
2022/12/05 09:11:05;;;;;;;9.35;8.45;;;6.30;97.20;;;;;;1727589;28;20205;-71
2022/12/05 09:11:57;;;;;;;9.95;8.40;;;6.30;97.20;;;;;;1727578;28;20219;-72
2022/12/05 09:12:49;;;;;;;7.88;6.93;;;6.30;97.20;;;;;;1727600;28;20215;-71
2022/12/05 09:13:41;;;;;;;8.18;7.45;;;6.30;97.20;;;;;;1727485;28;20713;-72
2022/12/05 09:14:33;;;;;;;9.35;8.43;;;6.30;97.20;;;;;;1726697;28;20203;-72
2022/12/05 09:15:23;;;;;;;10.13;8.35;;;6.30;97.20;;;;;;1727562;28;20200;-72
2022/12/05 09:16:17;;;;;;;9.00;8.10;;;6.30;97.20;;;;;;1727377;28;20246;-72
2022/12/05 09:17:08;;;;;;;8.90;7.82;;;6.30;97.20;;;;;;1727273;28;20197;-72
2022/12/05 09:18:00;;;;;;;9.10;7.77;;;6.30;97.20;;;;;;1727694;28;20302;-71
2022/12/05 09:18:51;;;;;;;8.77;7.75;;;6.30;97.20;;;;;;1727479;28;20204;-72
2022/12/05 09:19:43;;;;;;;7.82;7.13;;;6.30;97.20;;;;;;1727543;28;20650;-71
2022/12/05 09:20:34;;;;;;;7.97;7.28;;;6.30;97.20;;;;;;1727324;28;20236;-72
2022/12/05 09:21:28;;;;;;;7.93;7.13;;;6.30;97.20;;;;;;1727525;28;20234;-71
2022/12/05 09:22:21;;;;;;;7.95;7.15;;;6.30;97.20;;;;;;1727461;28;20204;-72
2022/12/05 09:23:12;;;;;;;7.63;6.93;;;6.30;97.20;;;;;;1727431;28;20204;-71
2022/12/05 09:24:04;;;;;;;8.20;7.40;;;6.30;97.20;;;;;;1727537;28;20228;-71
2022/12/05 09:24:55;;;;;;;8.45;7.65;;;6.40;97.20;;;;;;1726741;28;20588;-72
2022/12/05 09:25:53;;;;;;;9.43;8.40;;;6.40;97.20;;;;;;1727544;28;20207;-72
2022/12/05 09:26:45;;;;;;;9.68;7.70;;;6.40;97.20;;;;;;1727223;28;20185;-72
2022/12/05 09:27:36;;;;;;;8.10;7.30;;;6.30;97.20;;;;;;1727417;28;20666;-72
2022/12/05 09:28:28;;;;;;;8.57;7.67;;;6.30;97.20;;;;;;1727416;28;20564;-72
2022/12/05 09:29:20;;;;;;;8.68;7.78;;;6.30;97.20;;;;;;1727442;28;20592;-71
2022/12/05 09:30:11;;;;;;;7.80;6.85;;;6.40;97.20;;;;;;1727258;28;20204;-71
2022/12/05 09:31:05;;;;;;;7.78;6.95;;;6.30;97.20;;;;;;1727519;28;20724;-72
2022/12/05 09:31:56;;;;;;;8.63;6.85;;;6.40;97.20;;;;;;1727297;28;20213;-71
2022/12/05 09:32:47;;;;;;;8.00;7.20;;;6.40;97.20;;;;;;1726896;28;20200;-71
2022/12/05 09:33:38;;;;;;;8.13;7.05;;;6.40;97.20;;;;;;1727263;28;20208;-72
2022/12/05 09:34:30;;;;;;;9.60;7.97;;;6.40;97.20;;;;;;1726631;28;20192;-72
2022/12/05 09:35:21;;;;;;;7.45;6.70;;;6.40;97.20;;;;;;1727306;28;20973;-71
2022/12/05 09:36:14;;;;;;;7.80;7.00;;;6.40;97.20;;;;;;1727133;28;20588;-71
2022/12/05 09:37:07;;;;;;;6.72;6.03;;;6.40;97.20;;;;;;1727174;28;20208;-72
2022/12/05 09:37:59;;;;;;;7.45;6.47;;;6.50;97.20;;;;;;1727415;28;20204;-72
2022/12/05 09:38:51;;;;;;;7.97;6.90;;;6.50;97.20;;;;;;1727347;28;20215;-71
2022/12/05 09:39:43;;;;;;;9.48;7.28;;;6.50;97.20;;;;;;1727400;28;20207;-71
2022/12/05 09:40:39;;;;;;;8.52;7.25;;;6.50;97.20;;;;;;1727218;28;20806;-71
2022/12/05 09:42:06;;;;;;;8.07;6.85;;;6.60;97.20;;;;;;1727351;28;20670;-71
2022/12/05 09:43:05;;;;;;;8.48;6.80;;;6.60;97.20;;;;;;1727378;28;20236;-72
2022/12/05 09:44:01;;;;;;;7.40;6.70;;;6.60;97.20;;;;;;1727389;28;20200;-71
2022/12/05 09:45:04;;;;;;;8.38;7.10;;;6.70;97.20;;;;;;1726576;28;20233;-72
2022/12/05 09:46:02;;;;;;;7.60;6.80;;;6.70;97.20;;;;;;1727366;28;20201;-71
2022/12/05 09:46:59;;;;;;;7.95;6.25;;;6.70;97.20;;;;;;1727007;28;20230;-72
2022/12/05 09:47:56;;;;;;;9.30;6.60;;;6.70;97.20;;;;;;1727311;28;20208;-71
2022/12/05 09:48:48;;;;;;;7.53;6.72;;;6.70;97.20;;;;;;1727341;28;20254;-71
2022/12/05 09:49:47;;;;;;;6.95;6.25;;;6.70;97.20;;;;;;1727272;28;20231;-72
2022/12/05 09:50:43;;;;;;;8.15;7.35;;;6.70;97.20;;;;;;1727306;28;20604;-71
2022/12/05 09:51:40;;;;;;;7.57;6.38;;;6.80;97.20;;;;;;1727291;28;20208;-72
2022/12/05 09:52:34;;;;;;;6.85;5.90;;;6.80;97.20;;;;;;1727221;28;20209;-71
2022/12/05 09:53:29;;;;;;;7.10;6.40;;;6.80;97.20;;;;;;1727376;28;20208;-71
2022/12/05 09:54:21;;;;;;;6.53;5.82;;;6.80;97.20;;;;;;1727116;28;20213;-72
2022/12/05 09:55:16;;;;;;;6.53;5.93;;;6.80;97.20;;;;;;1726695;28;20201;-71
2022/12/05 09:56:21;;;;;;;6.85;6.25;;;6.80;97.20;;;;;;1727246;28;20208;-72
2022/12/05 09:57:12;;;;;;;7.68;6.78;;;6.80;97.20;;;;;;1727031;28;20213;-72
2022/12/05 09:58:12;;;;;;;6.93;6.23;;;6.80;97.20;;;;;;1727349;28;20200;-72
2022/12/05 09:59:04;;;;;;;6.90;6.20;;;6.80;97.20;;;;;;1727288;28;20454;-71
2022/12/05 09:59:55;;;;;;;7.45;6.38;;;6.80;97.20;;;;;;1727267;28;20212;-71
2022/12/05 10:00:48;;;;;;;6.80;6.20;;;6.80;97.20;;;;;;1727214;28;20247;-71
2022/12/05 10:01:44;;;;;;;8.10;7.05;;;6.80;97.20;;;;;;1727226;28;20454;-71
2022/12/05 10:02:44;;;;;;;6.95;6.22;;;6.80;97.20;;;;;;1727204;28;20287;-71
2022/12/05 10:03:42;;;;;;;7.18;6.28;;;6.80;97.20;;;;;;1727171;28;20259;-71
2022/12/05 10:04:54;;;;;;;6.72;6.13;;;6.80;97.20;;;;;;1726493;28;20200;-72
2022/12/05 10:05:51;;;;;;;6.78;6.13;;;6.90;97.20;;;;;;1727363;28;20196;-72
2022/12/05 10:06:50;;;;;;;6.00;5.40;;;6.90;97.20;;;;;;1726280;28;20277;-72
2022/12/05 10:07:48;;;;;;;6.00;5.40;;;6.90;97.20;;;;;;1726930;28;20610;-72
2022/12/05 10:08:58;;;;;;;6.55;5.95;;;6.90;97.20;;;;;;1727222;28;20279;-71
2022/12/05 10:09:59;;;;;;;7.10;6.38;;;6.80;97.20;;;;;;1727186;28;20260;-71
2022/12/05 10:11:00;;;;;;;6.40;5.75;;;6.80;97.20;;;;;;1727264;28;20232;-72
2022/12/05 10:12:02;;;;;;;6.93;6.22;;;6.80;97.20;;;;;;1727311;28;20564;-72
2022/12/05 10:13:15;;;;;;;6.75;5.93;;;6.90;97.20;;;;;;1727249;28;20209;-71
2022/12/05 10:14:12;;;;;;;6.47;5.85;;;6.90;97.20;;;;;;1727325;28;20195;-72
2022/12/05 10:15:11;;;;;;;6.40;5.80;;;6.90;97.20;;;;;;1726625;28;20199;-72
2022/12/05 10:16:09;;;;;;;5.95;5.45;;;6.90;97.20;;;;;;1727404;28;20210;-72
2022/12/05 10:17:04;;;;;;;7.03;6.13;;;6.90;97.20;;;;;;1726721;28;20184;-72
2022/12/05 10:18:01;;;;;;;7.30;5.82;;;6.90;97.20;;;;;;1727151;28;20625;-71
2022/12/05 10:18:58;;;;;;;6.40;5.80;;;7.00;97.20;;;;;;1727262;28;20216;-71
2022/12/05 10:19:55;;;;;;;6.32;5.60;;;7.00;97.20;;;;;;1727320;28;20279;-72
2022/12/05 10:20:51;;;;;;;6.40;5.80;;;7.00;97.20;;;;;;1727166;28;20235;-72
2022/12/05 10:21:50;;;;;;;7.03;6.35;;;7.00;97.20;;;;;;1727274;28;20701;-72
2022/12/05 10:22:46;;;;;;;5.97;5.40;;;7.00;97.20;;;;;;1727201;28;20204;-72
2022/12/05 10:23:49;;;;;;;6.45;5.43;;;7.00;97.20;;;;;;1727247;28;20543;-72
2022/12/05 10:24:44;;;;;;;6.68;6.07;;;6.90;97.20;;;;;;1726505;28;20197;-72
2022/12/05 10:25:38;;;;;;;6.45;5.85;;;7.00;97.20;;;;;;1727070;28;20201;-72
2022/12/05 10:26:34;;;;;;;6.70;6.10;;;7.00;97.20;;;;;;1726816;28;20232;-72
2022/12/05 10:27:32;;;;;;;5.72;5.18;;;7.00;97.20;;;;;;1727075;28;20215;-72
2022/12/05 10:28:31;;;;;;;6.45;5.82;;;7.00;97.20;;;;;;1727215;28;20181;-72
2022/12/05 10:29:29;;;;;;;5.82;5.32;;;7.10;97.20;;;;;;1726951;28;20208;-71
2022/12/05 10:30:21;;;;;;;5.85;5.28;;;7.10;97.20;;;;;;1726994;28;20196;-71
2022/12/05 10:31:17;;;;;;;6.07;5.47;;;7.10;97.20;;;;;;1726683;28;20197;-71
2022/12/05 10:32:15;;;;;;;5.90;5.40;;;7.10;97.20;;;;;;1726949;28;20204;-72
2022/12/05 10:33:13;;;;;;;5.60;5.10;;;7.10;97.20;;;;;;1727019;28;20254;-72
2022/12/05 10:34:14;;;;;;;6.20;5.57;;;7.10;97.20;;;;;;1727240;28;20579;-71
2022/12/05 10:35:15;;;;;;;6.32;5.72;;;7.10;97.20;;;;;;1726709;28;20212;-71
2022/12/05 10:36:11;;;;;;;6.55;5.72;;;7.10;97.20;;;;;;1727171;28;20201;-72
2022/12/05 10:37:10;;;;;;;6.25;5.60;;;7.10;97.20;;;;;;1726919;28;20201;-72
2022/12/05 10:38:04;;;;;;;5.30;4.90;;;7.10;97.20;;;;;;1727262;28;20200;-72
2022/12/05 10:38:59;;;;;;;5.60;5.10;;;7.10;97.20;;;;;;1727167;28;20205;-71
2022/12/05 10:39:51;;;;;;;5.97;5.38;;;7.10;97.20;;;;;;1727179;28;20205;-71
2022/12/05 10:40:47;;;;;;;6.03;5.43;;;7.10;97.20;;;;;;1726913;28;20232;-72
2022/12/05 10:41:37;;;;;;;5.50;5.00;;;7.10;97.20;;;;;;1727124;28;20215;-72